Time;durP1;ratioP1;P1;durP2;ratioP2;P2;SDS_P1;SDS_P2;PMS_P1;PMS_P2;Temp;Humidity;BMP_temperature;BMP_pressure;BME280_temperature;BME280_humidity;BME280_pressure;Samples;Min_cycle;Max_cycle;Signal;HPM_P1;HPM_P2
2022/09/04 00:02:57;;;;;;;3.22;1.90;;;16.10;99.90;;;;;;4996857;28;20041;-73
2022/09/04 00:05:52;;;;;;;3.13;1.98;;;16.00;99.90;;;;;;5011767;28;20041;-72
2022/09/04 00:08:49;;;;;;;3.50;1.50;;;16.00;99.90;;;;;;4998981;28;20037;-73
2022/09/04 00:11:43;;;;;;;2.95;1.95;;;15.90;99.90;;;;;;5003277;28;20072;-73
2022/09/04 00:14:34;;;;;;;2.58;1.80;;;15.80;99.90;;;;;;5015473;28;20052;-76
2022/09/04 00:17:24;;;;;;;3.45;1.90;;;15.80;99.90;;;;;;5013201;28;20426;-73
2022/09/04 00:20:19;;;;;;;2.40;2.10;;;15.80;99.90;;;;;;4990334;28;20486;-72
2022/09/04 00:23:01;;;;;;;3.33;1.90;;;15.70;99.90;;;;;;4973783;28;20135;-71
2022/09/04 00:25:49;;;;;;;5.18;1.90;;;15.70;99.90;;;;;;5004289;28;20382;-73
2022/09/04 00:28:31;;;;;;;3.10;2.00;;;15.70;99.90;;;;;;5014612;28;20049;-73
2022/09/04 00:31:24;;;;;;;3.08;1.92;;;15.70;99.90;;;;;;5010711;28;20084;-75
2022/09/04 00:34:12;;;;;;;2.15;1.67;;;15.60;99.90;;;;;;5018589;28;20072;-72
2022/09/04 00:36:44;;;;;;;3.35;1.80;;;15.60;99.90;;;;;;5031662;28;20505;-74
2022/09/04 00:39:15;;;;;;;2.47;2.00;;;15.60;99.90;;;;;;5033596;28;20033;-72
2022/09/04 00:41:53;;;;;;;5.18;2.30;;;15.50;99.90;;;;;;5017085;28;20396;-75
2022/09/04 00:44:46;;;;;;;2.67;2.22;;;15.50;99.90;;;;;;5014898;28;20037;-72
2022/09/04 00:47:43;;;;;;;2.10;1.90;;;15.50;99.90;;;;;;5029372;28;20047;-73
2022/09/04 00:50:18;;;;;;;3.70;1.90;;;15.40;99.90;;;;;;5032012;28;20037;-75
2022/09/04 00:52:56;;;;;;;3.47;1.90;;;15.40;99.90;;;;;;5032874;28;20041;-72
2022/09/04 00:55:47;;;;;;;2.30;2.10;;;15.30;99.90;;;;;;5015176;28;20444;-75
2022/09/04 00:58:54;;;;;;;3.38;1.73;;;15.30;99.90;;;;;;5039667;28;20107;-72
2022/09/04 01:01:26;;;;;;;3.78;1.90;;;15.20;99.90;;;;;;5016112;28;20041;-73
2022/09/04 01:04:04;;;;;;;3.17;2.33;;;15.20;99.90;;;;;;5033894;28;20437;-72
2022/09/04 01:07:00;;;;;;;2.67;2.03;;;15.20;99.90;;;;;;5026792;28;20133;-76
2022/09/04 01:09:42;;;;;;;4.25;2.55;;;15.10;99.90;;;;;;5030834;28;20615;-73
2022/09/04 01:12:30;;;;;;;2.40;2.15;;;15.10;99.90;;;;;;5023894;28;20046;-75
2022/09/04 01:15:23;;;;;;;4.22;2.13;;;15.00;99.90;;;;;;5030926;28;20041;-71
2022/09/04 01:18:15;;;;;;;4.97;2.38;;;14.90;99.90;;;;;;5034386;28;20525;-74
2022/09/04 01:20:51;;;;;;;2.95;1.90;;;14.90;99.90;;;;;;5014476;28;20099;-71
2022/09/04 01:23:20;;;;;;;3.47;1.70;;;14.90;99.90;;;;;;5026178;28;20043;-72
2022/09/04 01:26:06;;;;;;;3.35;1.83;;;14.80;99.90;;;;;;5031871;28;20037;-74
2022/09/04 01:28:41;;;;;;;4.60;1.70;;;14.90;99.90;;;;;;5028809;28;20129;-72
2022/09/04 01:31:15;;;;;;;2.33;2.00;;;14.80;99.90;;;;;;5031239;28;20073;-73
2022/09/04 01:34:07;;;;;;;3.58;2.08;;;14.80;99.90;;;;;;5014142;28;20473;-72
2022/09/04 01:36:48;;;;;;;3.10;2.25;;;14.70;99.90;;;;;;5023750;28;20049;-76
2022/09/04 01:39:19;;;;;;;4.68;2.13;;;14.70;99.90;;;;;;5015997;28;20044;-74
2022/09/04 01:41:58;;;;;;;2.28;1.88;;;14.70;99.90;;;;;;5011516;28;20387;-76
2022/09/04 01:44:25;;;;;;;2.78;2.05;;;14.70;99.90;;;;;;5024747;28;20044;-74
2022/09/04 01:46:54;;;;;;;4.25;2.63;;;14.60;99.90;;;;;;5012561;28;20150;-74
2022/09/04 01:49:31;;;;;;;3.38;1.90;;;14.60;99.90;;;;;;5023658;28;20043;-73
2022/09/04 01:52:35;;;;;;;2.17;1.80;;;14.60;99.90;;;;;;5010359;28;20044;-72
2022/09/04 01:55:30;;;;;;;3.20;2.10;;;14.50;99.90;;;;;;5008148;28;20059;-74
2022/09/04 01:58:14;;;;;;;2.65;1.95;;;14.50;99.90;;;;;;5017813;28;20120;-74
2022/09/04 02:01:00;;;;;;;2.22;1.90;;;14.50;99.90;;;;;;5029532;28;20053;-73
2022/09/04 02:03:40;;;;;;;4.43;2.28;;;14.40;99.90;;;;;;5017106;28;20044;-73
2022/09/04 02:06:21;;;;;;;4.47;2.00;;;14.40;99.90;;;;;;5037202;28;20086;-72
2022/09/04 02:09:16;;;;;;;3.65;1.90;;;14.30;99.90;;;;;;5014874;28;20056;-72
2022/09/04 02:11:52;;;;;;;6.30;2.20;;;14.20;99.90;;;;;;5030865;28;20055;-71
2022/09/04 02:15:15;;;;;;;3.72;2.03;;;14.20;99.90;;;;;;5031852;28;20074;-74
2022/09/04 02:18:10;;;;;;;2.28;2.08;;;14.10;99.90;;;;;;4950531;28;20130;-72
2022/09/04 02:20:40;;;;;;;2.55;2.10;;;14.10;99.90;;;;;;5027955;28;20412;-73
2022/09/04 02:23:20;;;;;;;2.70;2.20;;;14.00;99.90;;;;;;5032801;28;20400;-73
2022/09/04 02:26:02;;;;;;;3.05;2.20;;;14.00;99.90;;;;;;5029596;28;20485;-72
2022/09/04 02:29:06;;;;;;;3.08;2.17;;;14.00;99.90;;;;;;5029319;28;20429;-73
2022/09/04 02:31:47;;;;;;;2.65;2.17;;;14.00;99.90;;;;;;5024526;28;20048;-72
2022/09/04 02:34:19;;;;;;;3.30;2.35;;;14.00;99.90;;;;;;5032545;28;20041;-72
2022/09/04 02:36:55;;;;;;;4.70;2.22;;;14.00;99.90;;;;;;5014274;28;20037;-72
2022/09/04 02:39:48;;;;;;;2.88;2.10;;;14.00;99.90;;;;;;5031130;28;20091;-72
2022/09/04 02:42:26;;;;;;;2.60;2.13;;;14.00;99.90;;;;;;5030699;28;20088;-73
2022/09/04 02:45:11;;;;;;;2.20;2.00;;;14.10;99.90;;;;;;5032610;28;20382;-71
2022/09/04 02:48:12;;;;;;;3.30;2.30;;;14.10;99.90;;;;;;5034670;28;20037;-75
2022/09/04 02:51:16;;;;;;;3.03;2.35;;;14.10;99.90;;;;;;5013286;28;20120;-71
2022/09/04 02:54:05;;;;;;;2.85;2.15;;;14.00;99.90;;;;;;5018258;28;20041;-72
2022/09/04 02:57:02;;;;;;;2.20;2.00;;;14.00;99.90;;;;;;5030657;28;20048;-74
2022/09/04 02:59:53;;;;;;;2.38;2.10;;;14.00;99.90;;;;;;5042936;28;20048;-72
2022/09/04 03:02:34;;;;;;;2.38;2.10;;;13.90;99.90;;;;;;5028978;28;20052;-72
2022/09/04 03:05:11;;;;;;;5.95;2.30;;;13.90;99.90;;;;;;5025550;28;20063;-73
2022/09/04 03:07:59;;;;;;;3.28;2.13;;;13.80;99.90;;;;;;5031883;28;20155;-72
2022/09/04 03:11:01;;;;;;;4.90;2.50;;;13.80;99.90;;;;;;5024971;28;20331;-76
2022/09/04 03:13:36;;;;;;;3.45;2.30;;;13.70;99.90;;;;;;5033171;28;20049;-73
2022/09/04 03:16:01;;;;;;;2.95;2.47;;;13.70;99.90;;;;;;5013488;28;20155;-75
2022/09/04 03:19:05;;;;;;;3.53;2.40;;;13.70;99.90;;;;;;5029753;28;20132;-72
2022/09/04 03:22:06;;;;;;;3.38;2.20;;;13.70;99.90;;;;;;5031613;28;20040;-73
2022/09/04 03:25:01;;;;;;;5.40;2.50;;;13.70;99.90;;;;;;5015398;28;20044;-74
2022/09/04 03:27:31;;;;;;;2.75;2.45;;;13.70;99.90;;;;;;5006748;28;20393;-71
2022/09/04 03:30:11;;;;;;;3.35;2.40;;;13.60;99.90;;;;;;4994090;28;20112;-72
2022/09/04 03:33:04;;;;;;;6.38;2.75;;;13.60;99.90;;;;;;5010267;28;20053;-74
2022/09/04 03:35:52;;;;;;;4.20;2.40;;;13.50;99.90;;;;;;5017372;28;20405;-74
2022/09/04 03:38:36;;;;;;;6.38;2.35;;;13.50;99.90;;;;;;5005858;28;20049;-74
2022/09/04 03:41:27;;;;;;;9.02;2.70;;;13.40;99.90;;;;;;4987553;28;20046;-71
2022/09/04 03:44:08;;;;;;;3.50;2.60;;;13.40;99.90;;;;;;4999664;28;20045;-72
2022/09/04 03:46:47;;;;;;;3.70;2.40;;;13.30;99.90;;;;;;5012216;28;20478;-75
2022/09/04 03:49:30;;;;;;;3.10;2.65;;;13.30;99.90;;;;;;5012353;28;20050;-72
2022/09/04 03:52:05;;;;;;;5.15;2.70;;;13.20;99.90;;;;;;5011599;28;20048;-72
2022/09/04 03:54:36;;;;;;;3.50;2.50;;;13.20;99.90;;;;;;5012360;28;20164;-71
2022/09/04 03:57:11;;;;;;;5.15;2.47;;;13.20;99.90;;;;;;5008655;28;22071;-73
2022/09/04 03:59:36;;;;;;;4.97;2.38;;;13.20;99.90;;;;;;5009682;28;20128;-72
2022/09/04 04:02:11;;;;;;;2.78;2.47;;;13.20;99.90;;;;;;5010733;28;20144;-72
2022/09/04 04:04:42;;;;;;;3.22;2.55;;;13.10;99.90;;;;;;5010345;28;20049;-73
2022/09/04 04:07:29;;;;;;;3.53;2.42;;;13.10;99.90;;;;;;4996472;28;20724;-72
2022/09/04 04:10:32;;;;;;;5.03;2.70;;;13.20;99.90;;;;;;5011908;28;20037;-71
2022/09/04 04:13:20;;;;;;;4.45;2.42;;;13.10;99.90;;;;;;5015894;28;20347;-71
2022/09/04 04:16:23;;;;;;;3.45;2.50;;;13.10;99.90;;;;;;5014386;28;20037;-72
2022/09/04 04:18:54;;;;;;;3.03;2.25;;;13.10;99.90;;;;;;5009264;28;20052;-73
2022/09/04 04:21:26;;;;;;;3.60;2.50;;;13.10;99.90;;;;;;5014044;28;20047;-73
2022/09/04 04:23:57;;;;;;;2.90;2.42;;;13.10;99.90;;;;;;5013022;28;20545;-75
2022/09/04 04:26:46;;;;;;;2.90;2.53;;;13.10;99.90;;;;;;5014417;28;20041;-74
2022/09/04 04:29:37;;;;;;;8.85;2.67;;;13.10;99.90;;;;;;5032810;28;20447;-71
2022/09/04 04:32:15;;;;;;;3.53;2.20;;;13.10;99.90;;;;;;5028499;28;20423;-72
2022/09/04 04:35:12;;;;;;;5.70;2.88;;;13.00;99.90;;;;;;5034348;28;20044;-72
2022/09/04 04:38:13;;;;;;;3.33;2.58;;;13.00;99.90;;;;;;5028336;28;20071;-74
2022/09/04 04:41:02;;;;;;;3.13;2.58;;;13.00;99.90;;;;;;4967423;28;20053;-73
2022/09/04 04:43:40;;;;;;;6.25;3.00;;;13.00;99.90;;;;;;5011057;28;20060;-74
2022/09/04 04:46:15;;;;;;;7.53;2.60;;;12.90;99.90;;;;;;5007909;28;20461;-74
2022/09/04 04:49:03;;;;;;;3.35;2.53;;;12.90;99.90;;;;;;5009117;28;20036;-75
2022/09/04 04:51:39;;;;;;;3.22;2.38;;;12.90;99.90;;;;;;5027824;28;20528;-75
2022/09/04 04:54:28;;;;;;;4.70;3.10;;;12.80;99.90;;;;;;5015125;28;20090;-73
2022/09/04 04:57:30;;;;;;;3.10;2.38;;;12.70;99.90;;;;;;5028105;28;20064;-73
2022/09/04 05:00:18;;;;;;;2.80;2.33;;;12.70;99.90;;;;;;5024574;28;20051;-72
2022/09/04 05:03:08;;;;;;;2.83;2.35;;;12.60;99.90;;;;;;5024751;28;20365;-74
2022/09/04 05:06:08;;;;;;;4.90;2.50;;;12.70;99.90;;;;;;5018875;28;20410;-73
2022/09/04 05:08:36;;;;;;;3.80;2.20;;;12.60;99.90;;;;;;5026091;28;20040;-73
2022/09/04 05:11:38;;;;;;;5.47;2.85;;;12.50;99.90;;;;;;5028849;28;20079;-72
2022/09/04 05:14:23;;;;;;;3.08;2.13;;;12.60;99.90;;;;;;5032926;28;20052;-71
2022/09/04 05:17:22;;;;;;;5.60;2.42;;;12.60;99.90;;;;;;5013824;28;20041;-74
2022/09/04 05:20:09;;;;;;;3.85;2.53;;;12.70;99.90;;;;;;5027446;28;20041;-72
2022/09/04 05:22:46;;;;;;;5.00;2.67;;;12.70;99.90;;;;;;5013565;28;20064;-74
2022/09/04 05:25:24;;;;;;;3.25;2.60;;;12.70;99.90;;;;;;5021971;28;20044;-71
2022/09/04 05:28:02;;;;;;;5.32;2.70;;;12.70;99.90;;;;;;5012476;28;20098;-72
2022/09/04 05:30:55;;;;;;;4.88;2.40;;;12.70;99.90;;;;;;5030179;28;20117;-73
2022/09/04 05:33:37;;;;;;;3.47;2.83;;;12.70;99.90;;;;;;5048830;28;20142;-73
2022/09/04 05:36:06;;;;;;;2.60;2.35;;;12.80;99.90;;;;;;5045705;28;20330;-71
2022/09/04 05:38:45;;;;;;;2.55;2.35;;;12.80;99.90;;;;;;5030243;28;20041;-74
2022/09/04 05:41:24;;;;;;;2.90;2.60;;;12.80;99.90;;;;;;5030217;28;20767;-73
2022/09/04 05:44:13;;;;;;;4.22;2.88;;;12.80;99.90;;;;;;5030198;28;20033;-74
2022/09/04 05:47:03;;;;;;;3.65;2.72;;;12.80;99.90;;;;;;5014807;28;20807;-71
2022/09/04 05:50:17;;;;;;;4.72;2.70;;;12.90;99.90;;;;;;5028278;28;20052;-73
2022/09/04 05:53:07;;;;;;;8.55;2.80;;;12.80;99.90;;;;;;5003202;28;20127;-73
2022/09/04 05:55:51;;;;;;;3.22;2.20;;;12.80;99.90;;;;;;5017848;28;20045;-72
2022/09/04 05:58:48;;;;;;;5.05;2.92;;;12.80;99.90;;;;;;5012850;28;20102;-73
2022/09/04 06:01:40;;;;;;;6.55;2.80;;;12.90;99.90;;;;;;5010936;28;20087;-72
2022/09/04 06:04:45;;;;;;;4.72;2.50;;;12.90;99.90;;;;;;5011247;28;20454;-75
2022/09/04 06:07:39;;;;;;;5.82;2.97;;;12.90;99.90;;;;;;5013755;28;20041;-75
2022/09/04 06:10:16;;;;;;;3.45;2.58;;;12.90;99.90;;;;;;5015037;28;20040;-73
2022/09/04 06:13:01;;;;;;;4.47;2.80;;;13.00;99.90;;;;;;5013496;28;21714;-73
2022/09/04 06:15:56;;;;;;;4.13;3.07;;;13.00;99.90;;;;;;5029557;28;20044;-73
2022/09/04 06:18:52;;;;;;;3.72;2.92;;;13.00;99.90;;;;;;5012881;28;20739;-74
2022/09/04 06:22:00;;;;;;;4.22;3.00;;;13.10;99.90;;;;;;5010981;28;20052;-75
2022/09/04 06:24:42;;;;;;;3.25;2.85;;;13.10;99.90;;;;;;4995137;28;20044;-74
2022/09/04 06:27:27;;;;;;;5.30;2.88;;;13.20;99.90;;;;;;5029386;28;20405;-74
2022/09/04 06:30:09;;;;;;;5.70;2.90;;;13.20;99.90;;;;;;5026165;28;20128;-76
2022/09/04 06:32:59;;;;;;;3.75;2.58;;;13.20;99.90;;;;;;5028266;28;20416;-75
2022/09/04 06:35:31;;;;;;;3.55;2.85;;;13.30;99.90;;;;;;5012152;28;20457;-77
2022/09/04 06:38:18;;;;;;;3.42;2.65;;;13.40;99.90;;;;;;5014754;28;20588;-72
2022/09/04 06:41:15;;;;;;;3.17;2.70;;;13.50;99.90;;;;;;5011235;28;20041;-75
2022/09/04 06:43:46;;;;;;;5.05;2.50;;;13.60;99.90;;;;;;5009732;28;20033;-72
2022/09/04 06:46:32;;;;;;;3.42;2.53;;;13.70;99.90;;;;;;5032284;28;20072;-72
2022/09/04 06:49:19;;;;;;;6.90;2.80;;;13.80;99.90;;;;;;5012799;28;20037;-74
2022/09/04 06:51:53;;;;;;;3.70;2.67;;;13.90;99.90;;;;;;5026861;28;20075;-72
2022/09/04 06:54:28;;;;;;;3.40;2.53;;;14.10;99.90;;;;;;5027132;28;20103;-74
2022/09/04 06:57:16;;;;;;;3.83;2.58;;;14.20;99.90;;;;;;5029940;28;20091;-71
2022/09/04 06:59:51;;;;;;;3.65;2.88;;;14.40;99.90;;;;;;5043923;28;20465;-72
2022/09/04 07:02:35;;;;;;;3.17;2.55;;;14.50;99.90;;;;;;5026874;28;20041;-72
2022/09/04 07:05:08;;;;;;;3.40;2.80;;;14.70;99.90;;;;;;5030301;28;20094;-71
2022/09/04 07:07:44;;;;;;;5.07;2.85;;;14.80;99.90;;;;;;5030612;28;20036;-72
2022/09/04 07:10:15;;;;;;;4.18;2.47;;;15.00;99.90;;;;;;5019137;28;20115;-71
2022/09/04 07:12:46;;;;;;;5.20;2.70;;;15.20;99.90;;;;;;5022655;28;20051;-74
2022/09/04 07:15:30;;;;;;;3.55;2.72;;;15.30;99.90;;;;;;5014891;28;20047;-73
2022/09/04 07:18:05;;;;;;;3.72;2.97;;;15.50;99.90;;;;;;5028784;28;20385;-74
2022/09/04 07:20:59;;;;;;;5.13;2.70;;;15.60;99.90;;;;;;5022423;28;20037;-73
2022/09/04 07:23:49;;;;;;;4.05;2.53;;;15.80;99.90;;;;;;5023339;28;20037;-73
2022/09/04 07:26:41;;;;;;;3.28;2.70;;;15.90;99.90;;;;;;5029455;28;20037;-72
2022/09/04 07:29:32;;;;;;;3.75;2.97;;;16.00;99.90;;;;;;5028553;28;20045;-72
2022/09/04 07:31:57;;;;;;;3.33;2.42;;;16.20;99.90;;;;;;5028674;28;20486;-71
2022/09/04 07:34:36;;;;;;;3.58;2.75;;;16.30;99.90;;;;;;5026945;28;20044;-71
2022/09/04 07:37:08;;;;;;;4.43;2.63;;;16.50;99.90;;;;;;5031303;28;20060;-73
2022/09/04 07:40:10;;;;;;;3.20;2.63;;;16.60;99.90;;;;;;5023761;28;20045;-74
2022/09/04 07:42:58;;;;;;;4.20;2.47;;;16.80;99.90;;;;;;5028465;28;20052;-72
2022/09/04 07:46:09;;;;;;;3.05;2.60;;;17.00;99.90;;;;;;5030010;28;20489;-75
2022/09/04 07:48:44;;;;;;;5.50;2.25;;;17.20;99.90;;;;;;5014501;28;20107;-72
2022/09/04 07:51:14;;;;;;;3.30;2.45;;;17.30;99.90;;;;;;5030125;28;20083;-72
2022/09/04 07:53:58;;;;;;;3.03;2.33;;;17.40;99.90;;;;;;5030480;28;20546;-73
2022/09/04 07:56:52;;;;;;;3.97;2.50;;;17.60;99.90;;;;;;5034128;28;20041;-73
2022/09/04 07:59:19;;;;;;;3.40;2.40;;;17.70;99.90;;;;;;5014469;28;20128;-70
2022/09/04 08:01:47;;;;;;;3.00;2.50;;;17.70;99.90;;;;;;5026290;28;20436;-70
2022/09/04 08:04:36;;;;;;;3.38;2.70;;;17.80;99.90;;;;;;5034870;28;20090;-75
2022/09/04 08:07:07;;;;;;;4.05;2.20;;;17.80;99.90;;;;;;5019480;28;20531;-75
2022/09/04 08:09:35;;;;;;;4.00;3.00;;;17.90;99.90;;;;;;5035690;28;20056;-71
2022/09/04 08:12:24;;;;;;;3.92;2.30;;;18.00;99.90;;;;;;5009508;28;20047;-71
2022/09/04 08:15:21;;;;;;;4.78;2.80;;;18.00;99.90;;;;;;5035971;28;20147;-73
2022/09/04 08:18:20;;;;;;;5.60;2.60;;;18.10;99.90;;;;;;5030602;28;20410;-73
2022/09/04 08:21:04;;;;;;;3.20;2.70;;;18.30;99.90;;;;;;5027562;28;20141;-70
2022/09/04 08:23:57;;;;;;;3.20;2.90;;;18.30;99.90;;;;;;5033128;28;20064;-74
2022/09/04 08:26:54;;;;;;;4.90;2.60;;;18.50;99.90;;;;;;5033759;28;20041;-71
2022/09/04 08:29:32;;;;;;;4.13;2.65;;;18.60;99.90;;;;;;5017194;28;20037;-74
2022/09/04 08:32:35;;;;;;;3.78;2.20;;;18.60;99.90;;;;;;5017092;28;20045;-72
2022/09/04 08:35:19;;;;;;;7.20;2.92;;;18.70;99.90;;;;;;5034614;28;20044;-71
2022/09/04 08:38:03;;;;;;;2.95;2.30;;;19.00;99.90;;;;;;5032095;28;20461;-73
2022/09/04 08:40:56;;;;;;;2.80;2.50;;;19.00;99.90;;;;;;5032320;28;20134;-74
2022/09/04 08:43:52;;;;;;;2.90;2.40;;;19.10;99.90;;;;;;5018797;28;20048;-72
2022/09/04 08:46:52;;;;;;;3.22;2.35;;;19.20;99.90;;;;;;5033725;28;20106;-71
2022/09/04 08:49:43;;;;;;;3.03;2.50;;;19.30;99.90;;;;;;5017165;28;20206;-73
2022/09/04 08:52:40;;;;;;;4.95;2.50;;;19.30;99.90;;;;;;5027298;28;20047;-73
2022/09/04 08:55:33;;;;;;;3.58;2.50;;;19.60;99.90;;;;;;5028243;28;20086;-71
2022/09/04 08:58:36;;;;;;;2.53;2.30;;;19.70;99.90;;;;;;5028856;28;20124;-70
2022/09/04 09:01:29;;;;;;;2.88;2.38;;;19.90;99.90;;;;;;5017755;28;20423;-72
2022/09/04 09:04:18;;;;;;;5.82;2.55;;;20.10;99.90;;;;;;5016814;28;20037;-72
2022/09/04 09:07:04;;;;;;;5.13;2.65;;;20.10;99.90;;;;;;5034176;28;20041;-71
2022/09/04 09:09:48;;;;;;;2.90;2.60;;;20.20;99.90;;;;;;5029974;28;20123;-71
2022/09/04 09:12:26;;;;;;;2.80;2.08;;;20.30;99.90;;;;;;5031655;28;20063;-74
2022/09/04 09:15:10;;;;;;;4.18;2.60;;;20.50;99.90;;;;;;5000607;28;20207;-74
2022/09/04 09:17:38;;;;;;;3.20;2.20;;;20.50;99.90;;;;;;5025443;28;20543;-72
2022/09/04 09:20:10;;;;;;;4.82;2.50;;;20.70;99.90;;;;;;5017810;28;20102;-73
2022/09/04 09:23:14;;;;;;;3.72;2.22;;;20.80;99.90;;;;;;5015086;28;20040;-75
2022/09/04 09:26:22;;;;;;;2.65;2.13;;;21.00;99.90;;;;;;5030605;28;20036;-72
2022/09/04 09:29:22;;;;;;;3.03;2.00;;;21.30;99.90;;;;;;5030955;28;20055;-73
2022/09/04 09:32:15;;;;;;;5.65;2.25;;;21.20;99.90;;;;;;5006096;28;20049;-71
2022/09/04 09:35:07;;;;;;;3.55;2.75;;;21.40;99.90;;;;;;5028478;28;20044;-73
2022/09/04 09:37:35;;;;;;;4.40;2.45;;;21.60;99.90;;;;;;5034445;28;20053;-72
2022/09/04 09:40:13;;;;;;;3.10;2.30;;;21.80;99.90;;;;;;5016500;28;20098;-72
2022/09/04 09:43:08;;;;;;;2.35;1.90;;;21.90;99.90;;;;;;5028431;28;20044;-71
2022/09/04 09:45:53;;;;;;;3.42;1.90;;;22.20;99.90;;;;;;5028474;28;20136;-74
2022/09/04 09:48:37;;;;;;;2.15;1.70;;;22.40;99.90;;;;;;5014916;28;20044;-72
2022/09/04 09:51:37;;;;;;;2.47;1.80;;;22.50;99.90;;;;;;5028965;28;20032;-74
2022/09/04 09:54:31;;;;;;;2.10;1.80;;;22.40;96.40;;;;;;5012936;28;20083;-71
2022/09/04 09:57:34;;;;;;;5.30;1.90;;;22.60;94.80;;;;;;5030194;28;20138;-74
2022/09/04 10:00:24;;;;;;;2.00;1.60;;;22.90;93.90;;;;;;5008878;28;20196;-74
2022/09/04 10:03:07;;;;;;;3.30;1.90;;;23.30;91.00;;;;;;5029131;28;20036;-76
2022/09/04 10:05:39;;;;;;;3.42;1.70;;;23.50;88.10;;;;;;5013349;28;20042;-71
2022/09/04 10:08:34;;;;;;;2.35;1.60;;;23.20;70.50;;;;;;5023960;28;20048;-74
2022/09/04 10:11:13;;;;;;;2.92;2.03;;;23.20;67.00;;;;;;5008045;28;20051;-72
2022/09/04 10:13:54;;;;;;;1.73;1.60;;;23.30;65.90;;;;;;5044171;28;20124;-72
2022/09/04 10:16:38;;;;;;;1.95;1.60;;;23.50;63.00;;;;;;5031590;28;20048;-73
2022/09/04 10:19:22;;;;;;;2.90;1.90;;;23.30;54.60;;;;;;5031383;28;20040;-74
2022/09/04 10:22:26;;;;;;;2.20;1.63;;;23.30;65.50;;;;;;5031751;28;20045;-75
2022/09/04 10:25:04;;;;;;;3.40;1.70;;;23.50;58.90;;;;;;5029370;28;20065;-72
2022/09/04 10:27:48;;;;;;;2.55;1.85;;;23.80;56.70;;;;;;5032347;28;20049;-71
2022/09/04 10:30:21;;;;;;;;;;;24.00;61.10;;;;;;5016122;28;20056;-73
2022/09/04 10:33:17;;;;;;;3.03;1.75;;;24.00;51.50;;;;;;5032359;28;19970;-74
2022/09/04 10:36:13;;;;;;;2.40;2.00;;;24.40;41.60;;;;;;5026026;28;20091;-71
2022/09/04 10:42:21;;;;;;;4.93;1.80;;;24.30;20.80;;;;;;5012156;28;20050;-71
2022/09/04 10:44:56;;;;;;;2.42;1.58;;;24.40;21.00;;;;;;5002446;28;20040;-72
2022/09/04 10:47:53;;;;;;;2.22;1.60;;;24.20;21.70;;;;;;5029827;28;20288;-73
2022/09/04 10:51:00;;;;;;;4.78;2.10;;;24.20;20.30;;;;;;5013211;28;20045;-72
2022/09/04 10:53:50;;;;;;;3.47;1.92;;;24.10;27.40;;;;;;5015460;28;20049;-75
2022/09/04 10:56:25;;;;;;;3.17;2.00;;;24.10;22.20;;;;;;5012706;28;20036;-71
2022/09/04 10:59:20;;;;;;;1.67;1.58;;;24.20;27.80;;;;;;5029845;28;20041;-74
2022/09/04 11:02:00;;;;;;;1.70;1.60;;;24.10;20.50;;;;;;4994253;28;20465;-73
2022/09/04 11:04:33;;;;;;;1.83;1.60;;;24.20;21.10;;;;;;5014950;28;20375;-74
2022/09/04 11:07:08;;;;;;;2.42;1.73;;;24.10;22.80;;;;;;5026480;28;20120;-72
2022/09/04 11:09:56;;;;;;;4.88;2.13;;;24.20;30.40;;;;;;5012354;28;20052;-73
2022/09/04 11:13:00;;;;;;;3.20;1.92;;;24.30;29.00;;;;;;5028860;28;20077;-73
2022/09/04 11:15:46;;;;;;;2.55;2.15;;;24.30;33.40;;;;;;5031683;28;20048;-74
2022/09/04 11:18:24;;;;;;;2.03;1.70;;;24.40;22.50;;;;;;5016767;28;20049;-72
2022/09/04 11:21:13;;;;;;;2.58;2.03;;;24.40;20.00;;;;;;5030646;28;20124;-74
2022/09/04 11:23:57;;;;;;;2.30;1.90;;;24.40;21.40;;;;;;5015578;28;20894;-73
2022/09/04 11:27:01;;;;;;;3.50;2.00;;;24.70;13.20;;;;;;5029641;28;20365;-75
2022/09/04 11:29:29;;;;;;;2.50;1.73;;;24.80;11.20;;;;;;5013361;28;20186;-74
2022/09/04 11:32:23;;;;;;;3.60;1.95;;;24.90;10.20;;;;;;5015032;28;20127;-74
2022/09/04 11:34:57;;;;;;;2.78;1.88;;;24.70;3.70;;;;;;5015121;28;20048;-71
2022/09/04 11:37:39;;;;;;;2.13;1.88;;;25.00;17.50;;;;;;5028258;28;20090;-72
2022/09/04 11:40:19;;;;;;;3.25;2.20;;;25.10;13.30;;;;;;5011200;28;20055;-75
2022/09/04 11:43:23;;;;;;;2.67;2.10;;;25.20;6.60;;;;;;5026509;28;20075;-73
2022/09/04 11:46:10;;;;;;;3.10;2.30;;;25.30;1.00;;;;;;4952043;28;20545;-73
2022/09/04 11:48:41;;;;;;;2.20;1.70;;;25.30;1.00;;;;;;5008114;28;20052;-76
2022/09/04 11:51:42;;;;;;;2.90;1.80;;;25.20;1.00;;;;;;5027779;28;20509;-75
2022/09/04 11:54:14;;;;;;;4.80;2.00;;;25.10;1.00;;;;;;4994487;28;20123;-72
2022/09/04 11:57:00;;;;;;;5.22;2.17;;;25.10;11.10;;;;;;5027229;28;20132;-71
2022/09/04 11:59:36;;;;;;;3.00;2.20;;;25.20;9.00;;;;;;5020076;28;20080;-74
2022/09/04 12:02:26;;;;;;;3.78;1.80;;;25.40;1.00;;;;;;5030854;28;20120;-74
2022/09/04 12:05:38;;;;;;;3.85;1.75;;;25.50;3.00;;;;;;5012500;28;20046;-73
2022/09/04 12:08:38;;;;;;;4.20;2.03;;;25.50;1.00;;;;;;5025318;28;20153;-71
2022/09/04 12:11:48;;;;;;;6.20;2.00;;;25.40;1.00;;;;;;5030151;28;20132;-70
2022/09/04 12:14:43;;;;;;;3.15;1.92;;;25.30;1.00;;;;;;5012578;28;20045;-72
2022/09/04 12:17:36;;;;;;;2.55;1.75;;;25.20;1.70;;;;;;4998072;28;20052;-72
2022/09/04 12:20:46;;;;;;;2.45;1.80;;;25.20;1.00;;;;;;5012281;28;20045;-72
2022/09/04 12:23:46;;;;;;;3.90;1.90;;;25.30;1.00;;;;;;5002905;28;20103;-73
2022/09/04 12:26:37;;;;;;;2.20;1.73;;;25.10;1.00;;;;;;5006445;28;20033;-73
2022/09/04 12:29:27;;;;;;;3.05;1.70;;;25.30;4.50;;;;;;5003017;28;20056;-72
2022/09/04 12:32:06;;;;;;;2.13;1.63;;;25.30;1.00;;;;;;5006987;28;20045;-72
2022/09/04 12:35:00;;;;;;;3.33;1.90;;;25.20;1.00;;;;;;5007679;28;20494;-71
2022/09/04 12:37:55;;;;;;;2.95;1.90;;;25.20;1.20;;;;;;4969347;28;20156;-72
2022/09/04 12:40:33;;;;;;;4.53;2.10;;;25.30;1.00;;;;;;5019547;28;20050;-71
2022/09/04 12:43:29;;;;;;;2.38;1.75;;;25.40;3.00;;;;;;5011532;28;20129;-71
2022/09/04 12:45:58;;;;;;;2.05;1.77;;;25.30;1.00;;;;;;5014834;28;20378;-76
2022/09/04 12:48:26;;;;;;;2.50;1.73;;;25.30;1.30;;;;;;5013205;28;20148;-73
2022/09/04 12:50:59;;;;;;;3.67;2.10;;;25.40;2.40;;;;;;5011472;28;20073;-73
2022/09/04 12:53:53;;;;;;;3.05;2.05;;;25.30;1.00;;;;;;5012690;28;20037;-71
2022/09/04 12:56:27;;;;;;;1.70;1.60;;;25.40;1.00;;;;;;5013990;28;20056;-72
2022/09/04 12:59:25;;;;;;;3.33;1.90;;;25.40;3.30;;;;;;4997168;28;20064;-72
2022/09/04 13:02:09;;;;;;;2.28;1.95;;;25.50;1.00;;;;;;5010918;28;20046;-75
2022/09/04 13:04:44;;;;;;;2.20;1.80;;;25.50;1.00;;;;;;5012200;28;20044;-74
2022/09/04 13:07:47;;;;;;;2.30;1.60;;;25.50;1.00;;;;;;5006341;28;20125;-72
2022/09/04 13:10:32;;;;;;;2.17;1.98;;;25.50;1.00;;;;;;5011305;28;20072;-72
2022/09/04 13:13:01;;;;;;;3.33;2.08;;;25.60;1.00;;;;;;5013509;28;20403;-74
2022/09/04 13:15:42;;;;;;;2.13;1.90;;;25.80;1.00;;;;;;4995513;28;20343;-75
2022/09/04 13:18:21;;;;;;;2.00;1.80;;;25.90;1.00;;;;;;5013615;28;20087;-71
2022/09/04 13:21:08;;;;;;;4.30;1.83;;;25.90;1.00;;;;;;5011724;28;20037;-73
2022/09/04 13:23:47;;;;;;;2.58;1.90;;;25.70;1.00;;;;;;5013578;28;20683;-75
2022/09/04 13:26:41;;;;;;;2.50;1.75;;;25.60;1.00;;;;;;5011408;28;20045;-73
2022/09/04 13:29:34;;;;;;;2.28;2.08;;;25.60;1.00;;;;;;5033399;28;20114;-72
2022/09/04 13:32:31;;;;;;;2.78;1.80;;;25.90;1.00;;;;;;5030964;28;20045;-72
2022/09/04 13:35:15;;;;;;;5.85;1.80;;;26.30;1.00;;;;;;5015837;28;20041;-72
2022/09/04 13:37:44;;;;;;;;;;;26.50;1.00;;;;;;5033094;28;20065;-76
2022/09/04 13:40:35;;;;;;;1.88;1.73;;;27.00;1.00;;;;;;5014040;28;20409;-75
2022/09/04 13:43:05;;;;;;;1.95;1.75;;;27.00;1.00;;;;;;5031738;28;20768;-74
2022/09/04 13:45:39;;;;;;;2.28;1.75;;;27.30;1.00;;;;;;5015718;28;20041;-72
2022/09/04 13:48:10;;;;;;;2.73;1.80;;;27.40;1.00;;;;;;5032847;28;20041;-76
2022/09/04 13:50:47;;;;;;;2.08;1.88;;;27.30;1.00;;;;;;5029882;28;20048;-72
2022/09/04 13:53:27;;;;;;;2.50;2.00;;;27.20;1.00;;;;;;5048064;28;20048;-73
2022/09/04 13:55:57;;;;;;;2.33;1.83;;;27.30;1.00;;;;;;5014632;28;20484;-73
2022/09/04 13:58:26;;;;;;;2.45;1.80;;;27.00;1.00;;;;;;5011942;28;20340;-75
2022/09/04 14:00:58;;;;;;;3.75;1.80;;;27.20;1.00;;;;;;5016813;28;20045;-73
2022/09/04 14:03:34;;;;;;;2.35;1.67;;;27.20;1.00;;;;;;5014667;28;20079;-73
2022/09/04 14:06:04;;;;;;;2.47;1.90;;;27.30;1.00;;;;;;5030674;28;20084;-77
2022/09/04 14:08:33;;;;;;;2.33;1.95;;;27.40;1.00;;;;;;5011927;28;20036;-73
2022/09/04 14:11:24;;;;;;;2.45;1.70;;;27.10;1.00;;;;;;5025897;28;20052;-76
2022/09/04 14:14:33;;;;;;;1.60;1.50;;;26.90;1.00;;;;;;5027306;28;20061;-75
2022/09/04 14:16:59;;;;;;;1.60;1.50;;;26.50;1.00;;;;;;5001364;28;20103;-74
2022/09/04 14:19:53;;;;;;;2.85;1.90;;;26.40;1.00;;;;;;5030939;28;20108;-75
2022/09/04 14:22:44;;;;;;;3.28;1.80;;;26.40;1.00;;;;;;5029593;28;20080;-76
2022/09/04 14:25:14;;;;;;;1.90;1.70;;;26.10;1.00;;;;;;5014887;28;20037;-72
2022/09/04 14:27:58;;;;;;;2.13;1.90;;;26.00;1.00;;;;;;5031584;28;20130;-72
2022/09/04 14:30:24;;;;;;;1.90;1.70;;;25.90;1.00;;;;;;4992332;28;20470;-73